sensor_id;sensor_type;location;lat;lon;timestamp;P1;durP1;ratioP1;P2;durP2;ratioP2
61756;SDS011;57225;61.460;24.060;2023-08-06T00:00:59;9.70;;;4.03;;
61756;SDS011;57225;61.460;24.060;2023-08-06T00:03:43;7.75;;;3.90;;
61756;SDS011;57225;61.460;24.060;2023-08-06T00:06:28;9.38;;;4.00;;
61756;SDS011;57225;61.460;24.060;2023-08-06T00:09:12;12.25;;;3.58;;
61756;SDS011;57225;61.460;24.060;2023-08-06T00:11:57;13.50;;;4.95;;
61756;SDS011;57225;61.460;24.060;2023-08-06T00:14:42;10.48;;;4.18;;
61756;SDS011;57225;61.460;24.060;2023-08-06T00:17:26;6.47;;;3.92;;
61756;SDS011;57225;61.460;24.060;2023-08-06T00:20:11;9.43;;;3.92;;
61756;SDS011;57225;61.460;24.060;2023-08-06T00:22:55;11.88;;;4.55;;
61756;SDS011;57225;61.460;24.060;2023-08-06T00:25:40;10.38;;;4.15;;
61756;SDS011;57225;61.460;24.060;2023-08-06T00:28:25;7.40;;;3.67;;
61756;SDS011;57225;61.460;24.060;2023-08-06T00:31:09;16.35;;;5.03;;
61756;SDS011;57225;61.460;24.060;2023-08-06T00:33:53;8.38;;;4.10;;
61756;SDS011;57225;61.460;24.060;2023-08-06T00:36:38;6.07;;;3.95;;
61756;SDS011;57225;61.460;24.060;2023-08-06T00:39:23;7.50;;;3.75;;
61756;SDS011;57225;61.460;24.060;2023-08-06T00:42:10;8.27;;;3.72;;
61756;SDS011;57225;61.460;24.060;2023-08-06T00:44:55;8.02;;;3.50;;
61756;SDS011;57225;61.460;24.060;2023-08-06T00:47:40;5.45;;;3.53;;
61756;SDS011;57225;61.460;24.060;2023-08-06T00:50:25;8.35;;;3.90;;
61756;SDS011;57225;61.460;24.060;2023-08-06T00:53:10;9.18;;;3.88;;
61756;SDS011;57225;61.460;24.060;2023-08-06T00:55:54;6.80;;;3.40;;
61756;SDS011;57225;61.460;24.060;2023-08-06T00:58:39;8.32;;;3.55;;
61756;SDS011;57225;61.460;24.060;2023-08-06T01:01:24;7.20;;;3.88;;
61756;SDS011;57225;61.460;24.060;2023-08-06T01:04:08;8.63;;;4.07;;
61756;SDS011;57225;61.460;24.060;2023-08-06T01:13:24;10.18;;;4.55;;
61756;SDS011;57225;61.460;24.060;2023-08-06T01:16:18;10.05;;;4.45;;
61756;SDS011;57225;61.460;24.060;2023-08-06T01:19:04;10.43;;;4.70;;
61756;SDS011;57225;61.460;24.060;2023-08-06T01:21:48;12.07;;;5.15;;
61756;SDS011;57225;61.460;24.060;2023-08-06T01:24:33;9.25;;;4.38;;
61756;SDS011;57225;61.460;24.060;2023-08-06T01:27:21;9.93;;;4.43;;
61756;SDS011;57225;61.460;24.060;2023-08-06T01:30:13;11.73;;;4.32;;
61756;SDS011;57225;61.460;24.060;2023-08-06T01:35:49;9.05;;;4.32;;
61756;SDS011;57225;61.460;24.060;2023-08-06T01:38:34;10.98;;;4.80;;
61756;SDS011;57225;61.460;24.060;2023-08-06T01:41:19;7.72;;;4.47;;
61756;SDS011;57225;61.460;24.060;2023-08-06T01:47:20;7.90;;;4.13;;
61756;SDS011;57225;61.460;24.060;2023-08-06T01:50:05;7.93;;;3.80;;
61756;SDS011;57225;61.460;24.060;2023-08-06T01:52:49;7.63;;;3.75;;
61756;SDS011;57225;61.460;24.060;2023-08-06T01:55:34;7.60;;;3.88;;
61756;SDS011;57225;61.460;24.060;2023-08-06T01:58:18;17.15;;;4.43;;
61756;SDS011;57225;61.460;24.060;2023-08-06T02:01:03;14.27;;;3.85;;
61756;SDS011;57225;61.460;24.060;2023-08-06T02:03:47;8.88;;;3.72;;
61756;SDS011;57225;61.460;24.060;2023-08-06T02:06:32;6.43;;;3.60;;
61756;SDS011;57225;61.460;24.060;2023-08-06T02:09:16;9.32;;;4.32;;
61756;SDS011;57225;61.460;24.060;2023-08-06T02:12:01;8.20;;;3.70;;
61756;SDS011;57225;61.460;24.060;2023-08-06T02:14:46;8.30;;;4.03;;
61756;SDS011;57225;61.460;24.060;2023-08-06T02:17:30;6.68;;;3.40;;
61756;SDS011;57225;61.460;24.060;2023-08-06T02:20:15;6.15;;;3.55;;
61756;SDS011;57225;61.460;24.060;2023-08-06T02:22:59;11.73;;;4.00;;
61756;SDS011;57225;61.460;24.060;2023-08-06T02:25:44;7.75;;;3.63;;
61756;SDS011;57225;61.460;24.060;2023-08-06T02:28:29;13.73;;;4.20;;
61756;SDS011;57225;61.460;24.060;2023-08-06T02:31:15;14.82;;;5.05;;
61756;SDS011;57225;61.460;24.060;2023-08-06T02:33:59;15.25;;;5.75;;
61756;SDS011;57225;61.460;24.060;2023-08-06T02:36:44;10.68;;;4.10;;
61756;SDS011;57225;61.460;24.060;2023-08-06T02:39:28;7.70;;;4.07;;
61756;SDS011;57225;61.460;24.060;2023-08-06T02:42:13;8.57;;;4.22;;
61756;SDS011;57225;61.460;24.060;2023-08-06T02:44:57;9.23;;;3.75;;
61756;SDS011;57225;61.460;24.060;2023-08-06T02:47:42;9.43;;;4.18;;
61756;SDS011;57225;61.460;24.060;2023-08-06T02:50:26;10.88;;;4.25;;
61756;SDS011;57225;61.460;24.060;2023-08-06T02:53:11;8.48;;;3.78;;
61756;SDS011;57225;61.460;24.060;2023-08-06T02:55:55;11.75;;;4.75;;
61756;SDS011;57225;61.460;24.060;2023-08-06T02:58:40;11.82;;;4.55;;
61756;SDS011;57225;61.460;24.060;2023-08-06T03:01:24;6.90;;;3.95;;
61756;SDS011;57225;61.460;24.060;2023-08-06T03:04:10;10.00;;;4.85;;
61756;SDS011;57225;61.460;24.060;2023-08-06T03:06:55;7.60;;;3.50;;
61756;SDS011;57225;61.460;24.060;2023-08-06T03:09:39;15.90;;;4.25;;
61756;SDS011;57225;61.460;24.060;2023-08-06T03:12:24;6.70;;;3.25;;
61756;SDS011;57225;61.460;24.060;2023-08-06T03:15:08;5.32;;;3.47;;
61756;SDS011;57225;61.460;24.060;2023-08-06T03:17:55;6.38;;;3.58;;
61756;SDS011;57225;61.460;24.060;2023-08-06T03:20:40;10.60;;;3.65;;
61756;SDS011;57225;61.460;24.060;2023-08-06T03:23:24;9.30;;;4.00;;
61756;SDS011;57225;61.460;24.060;2023-08-06T03:26:09;7.15;;;3.63;;
61756;SDS011;57225;61.460;24.060;2023-08-06T03:28:54;6.70;;;3.50;;
61756;SDS011;57225;61.460;24.060;2023-08-06T03:31:38;7.88;;;3.83;;
61756;SDS011;57225;61.460;24.060;2023-08-06T03:34:23;6.65;;;3.70;;
61756;SDS011;57225;61.460;24.060;2023-08-06T03:37:07;8.65;;;3.83;;
61756;SDS011;57225;61.460;24.060;2023-08-06T03:39:52;11.60;;;4.20;;
61756;SDS011;57225;61.460;24.060;2023-08-06T03:42:37;7.90;;;3.92;;
61756;SDS011;57225;61.460;24.060;2023-08-06T03:45:21;8.80;;;3.53;;
61756;SDS011;57225;61.460;24.060;2023-08-06T03:48:06;5.70;;;3.25;;
61756;SDS011;57225;61.460;24.060;2023-08-06T03:50:50;6.47;;;3.42;;
61756;SDS011;57225;61.460;24.060;2023-08-06T03:53:35;9.00;;;3.22;;
61756;SDS011;57225;61.460;24.060;2023-08-06T03:56:19;12.07;;;4.32;;
61756;SDS011;57225;61.460;24.060;2023-08-06T03:59:04;10.68;;;4.05;;
61756;SDS011;57225;61.460;24.060;2023-08-06T04:01:49;8.13;;;4.03;;
61756;SDS011;57225;61.460;24.060;2023-08-06T04:04:33;9.45;;;3.50;;
61756;SDS011;57225;61.460;24.060;2023-08-06T04:07:17;9.50;;;4.22;;
61756;SDS011;57225;61.460;24.060;2023-08-06T04:10:04;6.13;;;3.33;;
61756;SDS011;57225;61.460;24.060;2023-08-06T04:12:49;6.55;;;3.35;;
61756;SDS011;57225;61.460;24.060;2023-08-06T04:15:33;7.15;;;3.17;;
61756;SDS011;57225;61.460;24.060;2023-08-06T04:18:18;10.68;;;4.35;;
61756;SDS011;57225;61.460;24.060;2023-08-06T04:21:03;8.68;;;4.30;;
61756;SDS011;57225;61.460;24.060;2023-08-06T04:23:48;13.13;;;4.00;;
61756;SDS011;57225;61.460;24.060;2023-08-06T04:26:32;8.32;;;3.92;;
61756;SDS011;57225;61.460;24.060;2023-08-06T04:29:16;8.07;;;3.83;;
61756;SDS011;57225;61.460;24.060;2023-08-06T04:32:01;10.50;;;3.95;;
61756;SDS011;57225;61.460;24.060;2023-08-06T04:34:45;9.48;;;4.03;;
61756;SDS011;57225;61.460;24.060;2023-08-06T04:37:31;12.02;;;4.18;;
61756;SDS011;57225;61.460;24.060;2023-08-06T04:40:15;8.85;;;4.00;;
61756;SDS011;57225;61.460;24.060;2023-08-06T04:43:00;10.85;;;4.20;;
61756;SDS011;57225;61.460;24.060;2023-08-06T04:45:48;8.65;;;4.35;;
61756;SDS011;57225;61.460;24.060;2023-08-06T04:48:33;11.48;;;3.90;;
61756;SDS011;57225;61.460;24.060;2023-08-06T04:51:18;11.95;;;4.25;;
61756;SDS011;57225;61.460;24.060;2023-08-06T04:54:02;10.15;;;3.90;;
61756;SDS011;57225;61.460;24.060;2023-08-06T04:56:47;12.40;;;3.92;;
61756;SDS011;57225;61.460;24.060;2023-08-06T04:59:32;12.48;;;4.53;;
61756;SDS011;57225;61.460;24.060;2023-08-06T05:02:16;13.23;;;3.90;;
61756;SDS011;57225;61.460;24.060;2023-08-06T05:05:01;12.50;;;3.78;;
61756;SDS011;57225;61.460;24.060;2023-08-06T05:07:48;7.78;;;3.80;;
61756;SDS011;57225;61.460;24.060;2023-08-06T05:10:33;7.10;;;3.70;;
61756;SDS011;57225;61.460;24.060;2023-08-06T05:13:17;11.88;;;3.67;;
61756;SDS011;57225;61.460;24.060;2023-08-06T05:16:02;9.73;;;3.25;;
61756;SDS011;57225;61.460;24.060;2023-08-06T05:18:46;9.98;;;3.60;;
61756;SDS011;57225;61.460;24.060;2023-08-06T05:21:31;12.13;;;3.30;;
61756;SDS011;57225;61.460;24.060;2023-08-06T05:24:15;6.63;;;3.08;;
61756;SDS011;57225;61.460;24.060;2023-08-06T05:27:00;12.00;;;3.22;;
61756;SDS011;57225;61.460;24.060;2023-08-06T05:29:44;9.70;;;3.33;;
61756;SDS011;57225;61.460;24.060;2023-08-06T05:32:29;9.32;;;3.33;;
61756;SDS011;57225;61.460;24.060;2023-08-06T05:35:14;7.53;;;3.08;;
61756;SDS011;57225;61.460;24.060;2023-08-06T05:37:58;7.72;;;2.88;;
61756;SDS011;57225;61.460;24.060;2023-08-06T05:40:43;9.75;;;3.22;;
61756;SDS011;57225;61.460;24.060;2023-08-06T05:43:27;8.10;;;3.05;;
61756;SDS011;57225;61.460;24.060;2023-08-06T05:46:12;9.20;;;2.63;;
61756;SDS011;57225;61.460;24.060;2023-08-06T05:48:56;11.55;;;3.13;;
61756;SDS011;57225;61.460;24.060;2023-08-06T05:51:41;6.18;;;2.60;;
61756;SDS011;57225;61.460;24.060;2023-08-06T05:54:25;11.15;;;2.92;;
61756;SDS011;57225;61.460;24.060;2023-08-06T05:57:10;9.57;;;3.33;;
61756;SDS011;57225;61.460;24.060;2023-08-06T05:59:55;9.57;;;2.70;;
61756;SDS011;57225;61.460;24.060;2023-08-06T06:02:39;14.95;;;3.28;;
61756;SDS011;57225;61.460;24.060;2023-08-06T06:05:24;12.35;;;2.95;;
61756;SDS011;57225;61.460;24.060;2023-08-06T06:08:08;11.13;;;2.95;;
61756;SDS011;57225;61.460;24.060;2023-08-06T06:10:52;8.50;;;2.47;;
61756;SDS011;57225;61.460;24.060;2023-08-06T06:13:37;7.82;;;2.65;;
61756;SDS011;57225;61.460;24.060;2023-08-06T06:16:22;12.43;;;2.72;;
61756;SDS011;57225;61.460;24.060;2023-08-06T06:19:06;8.52;;;2.50;;
61756;SDS011;57225;61.460;24.060;2023-08-06T06:21:51;8.55;;;2.53;;
61756;SDS011;57225;61.460;24.060;2023-08-06T06:24:37;10.52;;;2.60;;
61756;SDS011;57225;61.460;24.060;2023-08-06T06:27:21;10.75;;;3.00;;
61756;SDS011;57225;61.460;24.060;2023-08-06T06:30:06;11.90;;;2.70;;
61756;SDS011;57225;61.460;24.060;2023-08-06T06:32:51;19.33;;;2.72;;
61756;SDS011;57225;61.460;24.060;2023-08-06T06:35:36;13.00;;;2.55;;
61756;SDS011;57225;61.460;24.060;2023-08-06T06:38:20;15.52;;;2.97;;
61756;SDS011;57225;61.460;24.060;2023-08-06T06:41:05;12.18;;;3.03;;
61756;SDS011;57225;61.460;24.060;2023-08-06T06:43:50;12.00;;;2.53;;
61756;SDS011;57225;61.460;24.060;2023-08-06T06:46:34;14.93;;;3.10;;
61756;SDS011;57225;61.460;24.060;2023-08-06T06:49:19;10.30;;;2.78;;
61756;SDS011;57225;61.460;24.060;2023-08-06T06:52:03;10.52;;;3.03;;
61756;SDS011;57225;61.460;24.060;2023-08-06T06:54:48;7.95;;;3.00;;
61756;SDS011;57225;61.460;24.060;2023-08-06T06:57:33;7.10;;;2.53;;
61756;SDS011;57225;61.460;24.060;2023-08-06T07:00:17;8.85;;;2.50;;
61756;SDS011;57225;61.460;24.060;2023-08-06T07:03:02;12.52;;;2.80;;
61756;SDS011;57225;61.460;24.060;2023-08-06T07:05:47;7.57;;;2.88;;
61756;SDS011;57225;61.460;24.060;2023-08-06T07:08:31;14.25;;;3.08;;
61756;SDS011;57225;61.460;24.060;2023-08-06T07:11:16;11.85;;;3.03;;
61756;SDS011;57225;61.460;24.060;2023-08-06T07:14:01;9.45;;;2.67;;
61756;SDS011;57225;61.460;24.060;2023-08-06T07:16:45;11.50;;;3.05;;
61756;SDS011;57225;61.460;24.060;2023-08-06T07:19:30;7.63;;;2.50;;
61756;SDS011;57225;61.460;24.060;2023-08-06T07:22:14;8.07;;;2.55;;
61756;SDS011;57225;61.460;24.060;2023-08-06T07:24:59;13.98;;;2.50;;
61756;SDS011;57225;61.460;24.060;2023-08-06T07:27:44;10.68;;;2.85;;
61756;SDS011;57225;61.460;24.060;2023-08-06T07:30:28;11.93;;;2.63;;
61756;SDS011;57225;61.460;24.060;2023-08-06T07:33:13;10.55;;;2.65;;
61756;SDS011;57225;61.460;24.060;2023-08-06T07:35:59;11.68;;;2.90;;
61756;SDS011;57225;61.460;24.060;2023-08-06T07:38:43;10.00;;;2.33;;
61756;SDS011;57225;61.460;24.060;2023-08-06T07:41:28;9.23;;;2.65;;
61756;SDS011;57225;61.460;24.060;2023-08-06T07:44:28;8.88;;;2.63;;
61756;SDS011;57225;61.460;24.060;2023-08-06T07:47:12;12.57;;;2.60;;
61756;SDS011;57225;61.460;24.060;2023-08-06T07:49:57;11.57;;;2.92;;
61756;SDS011;57225;61.460;24.060;2023-08-06T07:52:41;7.82;;;2.45;;
61756;SDS011;57225;61.460;24.060;2023-08-06T07:55:26;7.63;;;2.38;;
61756;SDS011;57225;61.460;24.060;2023-08-06T07:58:11;10.00;;;2.40;;
61756;SDS011;57225;61.460;24.060;2023-08-06T08:00:55;7.80;;;2.50;;
61756;SDS011;57225;61.460;24.060;2023-08-06T08:03:40;6.93;;;2.10;;
61756;SDS011;57225;61.460;24.060;2023-08-06T08:06:24;18.15;;;2.50;;
61756;SDS011;57225;61.460;24.060;2023-08-06T08:09:09;10.93;;;2.63;;
61756;SDS011;57225;61.460;24.060;2023-08-06T08:11:53;12.35;;;2.70;;
61756;SDS011;57225;61.460;24.060;2023-08-06T08:14:37;7.28;;;2.70;;
61756;SDS011;57225;61.460;24.060;2023-08-06T08:17:22;8.23;;;2.75;;
61756;SDS011;57225;61.460;24.060;2023-08-06T08:20:06;7.75;;;2.90;;
61756;SDS011;57225;61.460;24.060;2023-08-06T08:22:51;8.13;;;2.42;;
61756;SDS011;57225;61.460;24.060;2023-08-06T08:25:36;8.55;;;2.42;;
61756;SDS011;57225;61.460;24.060;2023-08-06T08:28:20;9.27;;;2.60;;
61756;SDS011;57225;61.460;24.060;2023-08-06T08:31:07;8.15;;;2.58;;
61756;SDS011;57225;61.460;24.060;2023-08-06T08:33:52;5.30;;;1.85;;
61756;SDS011;57225;61.460;24.060;2023-08-06T08:36:38;6.90;;;2.88;;
61756;SDS011;57225;61.460;24.060;2023-08-06T08:39:22;13.20;;;2.50;;
61756;SDS011;57225;61.460;24.060;2023-08-06T08:42:07;6.43;;;2.08;;
61756;SDS011;57225;61.460;24.060;2023-08-06T08:44:53;7.07;;;2.60;;
61756;SDS011;57225;61.460;24.060;2023-08-06T08:47:42;9.95;;;2.13;;
61756;SDS011;57225;61.460;24.060;2023-08-06T08:50:27;8.05;;;2.78;;
61756;SDS011;57225;61.460;24.060;2023-08-06T08:53:16;7.22;;;2.20;;
61756;SDS011;57225;61.460;24.060;2023-08-06T08:56:00;10.18;;;2.75;;
61756;SDS011;57225;61.460;24.060;2023-08-06T08:58:45;7.30;;;1.90;;
61756;SDS011;57225;61.460;24.060;2023-08-06T09:01:29;7.10;;;1.88;;
61756;SDS011;57225;61.460;24.060;2023-08-06T09:04:16;7.85;;;2.08;;
61756;SDS011;57225;61.460;24.060;2023-08-06T09:07:01;7.28;;;1.92;;
61756;SDS011;57225;61.460;24.060;2023-08-06T09:09:46;5.43;;;1.98;;
61756;SDS011;57225;61.460;24.060;2023-08-06T09:12:33;9.05;;;2.10;;
61756;SDS011;57225;61.460;24.060;2023-08-06T09:15:17;3.83;;;1.63;;
61756;SDS011;57225;61.460;24.060;2023-08-06T09:18:08;7.85;;;2.00;;
61756;SDS011;57225;61.460;24.060;2023-08-06T09:20:55;4.43;;;1.88;;
61756;SDS011;57225;61.460;24.060;2023-08-06T09:23:40;5.63;;;1.70;;
61756;SDS011;57225;61.460;24.060;2023-08-06T09:26:24;9.55;;;2.00;;
61756;SDS011;57225;61.460;24.060;2023-08-06T09:29:18;5.47;;;1.90;;
61756;SDS011;57225;61.460;24.060;2023-08-06T09:32:02;6.70;;;1.60;;
61756;SDS011;57225;61.460;24.060;2023-08-06T09:34:47;10.20;;;2.10;;
61756;SDS011;57225;61.460;24.060;2023-08-06T09:37:40;4.60;;;1.80;;
61756;SDS011;57225;61.460;24.060;2023-08-06T09:40:25;5.72;;;1.80;;
61756;SDS011;57225;61.460;24.060;2023-08-06T09:43:11;5.28;;;1.90;;
61756;SDS011;57225;61.460;24.060;2023-08-06T09:45:56;7.82;;;2.28;;
61756;SDS011;57225;61.460;24.060;2023-08-06T09:48:41;7.63;;;1.92;;
61756;SDS011;57225;61.460;24.060;2023-08-06T09:51:29;6.15;;;1.85;;
61756;SDS011;57225;61.460;24.060;2023-08-06T09:54:13;4.38;;;1.60;;
61756;SDS011;57225;61.460;24.060;2023-08-06T09:56:59;7.35;;;2.40;;
61756;SDS011;57225;61.460;24.060;2023-08-06T09:59:44;7.18;;;2.22;;
61756;SDS011;57225;61.460;24.060;2023-08-06T10:02:31;6.72;;;2.10;;
61756;SDS011;57225;61.460;24.060;2023-08-06T10:05:17;8.00;;;1.85;;
61756;SDS011;57225;61.460;24.060;2023-08-06T10:08:02;5.70;;;2.00;;
61756;SDS011;57225;61.460;24.060;2023-08-06T10:10:49;8.45;;;1.85;;
61756;SDS011;57225;61.460;24.060;2023-08-06T10:13:34;6.43;;;1.70;;
61756;SDS011;57225;61.460;24.060;2023-08-06T10:16:19;4.85;;;1.92;;
61756;SDS011;57225;61.460;24.060;2023-08-06T10:19:04;5.00;;;1.90;;
61756;SDS011;57225;61.460;24.060;2023-08-06T10:22:09;4.68;;;1.77;;
61756;SDS011;57225;61.460;24.060;2023-08-06T10:25:01;5.70;;;2.05;;
61756;SDS011;57225;61.460;24.060;2023-08-06T10:30:34;7.35;;;2.05;;
61756;SDS011;57225;61.460;24.060;2023-08-06T10:33:29;7.90;;;2.20;;
61756;SDS011;57225;61.460;24.060;2023-08-06T10:36:25;5.65;;;2.00;;
61756;SDS011;57225;61.460;24.060;2023-08-06T10:39:13;7.38;;;1.98;;
61756;SDS011;57225;61.460;24.060;2023-08-06T10:41:58;4.15;;;1.90;;
61756;SDS011;57225;61.460;24.060;2023-08-06T10:45:28;7.80;;;1.90;;
61756;SDS011;57225;61.460;24.060;2023-08-06T10:48:00;6.38;;;2.00;;
61756;SDS011;57225;61.460;24.060;2023-08-06T10:50:45;4.55;;;1.85;;
61756;SDS011;57225;61.460;24.060;2023-08-06T10:53:30;7.30;;;1.75;;
61756;SDS011;57225;61.460;24.060;2023-08-06T10:56:18;6.20;;;2.10;;
61756;SDS011;57225;61.460;24.060;2023-08-06T10:59:06;4.60;;;1.75;;
61756;SDS011;57225;61.460;24.060;2023-08-06T11:01:50;8.18;;;2.22;;
61756;SDS011;57225;61.460;24.060;2023-08-06T11:04:36;5.75;;;2.00;;
61756;SDS011;57225;61.460;24.060;2023-08-06T11:07:20;5.05;;;1.67;;
61756;SDS011;57225;61.460;24.060;2023-08-06T11:10:07;5.07;;;2.20;;
61756;SDS011;57225;61.460;24.060;2023-08-06T11:13:00;4.85;;;2.25;;
61756;SDS011;57225;61.460;24.060;2023-08-06T11:15:45;5.50;;;2.00;;
61756;SDS011;57225;61.460;24.060;2023-08-06T11:18:29;6.20;;;2.00;;
61756;SDS011;57225;61.460;24.060;2023-08-06T11:21:14;8.13;;;2.13;;
61756;SDS011;57225;61.460;24.060;2023-08-06T11:24:02;6.30;;;1.70;;
61756;SDS011;57225;61.460;24.060;2023-08-06T11:26:46;10.00;;;2.35;;
61756;SDS011;57225;61.460;24.060;2023-08-06T11:29:30;3.03;;;1.80;;
61756;SDS011;57225;61.460;24.060;2023-08-06T11:32:21;5.72;;;2.28;;
61756;SDS011;57225;61.460;24.060;2023-08-06T11:35:09;5.20;;;1.88;;
61756;SDS011;57225;61.460;24.060;2023-08-06T11:40:38;8.65;;;2.10;;
61756;SDS011;57225;61.460;24.060;2023-08-06T11:43:23;4.63;;;1.80;;
61756;SDS011;57225;61.460;24.060;2023-08-06T11:46:07;4.20;;;1.90;;
61756;SDS011;57225;61.460;24.060;2023-08-06T11:48:52;3.83;;;1.80;;
61756;SDS011;57225;61.460;24.060;2023-08-06T11:51:41;3.22;;;1.90;;
61756;SDS011;57225;61.460;24.060;2023-08-06T11:54:31;3.58;;;1.70;;
61756;SDS011;57225;61.460;24.060;2023-08-06T11:57:20;7.40;;;2.15;;
61756;SDS011;57225;61.460;24.060;2023-08-06T12:00:12;11.18;;;2.30;;
61756;SDS011;57225;61.460;24.060;2023-08-06T12:02:57;5.63;;;2.20;;
61756;SDS011;57225;61.460;24.060;2023-08-06T12:05:42;4.80;;;2.17;;
61756;SDS011;57225;61.460;24.060;2023-08-06T12:08:30;6.78;;;1.90;;
61756;SDS011;57225;61.460;24.060;2023-08-06T12:11:14;6.00;;;2.17;;
61756;SDS011;57225;61.460;24.060;2023-08-06T12:13:59;7.72;;;2.00;;
61756;SDS011;57225;61.460;24.060;2023-08-06T12:16:44;5.10;;;2.10;;
61756;SDS011;57225;61.460;24.060;2023-08-06T12:19:28;5.28;;;2.13;;
61756;SDS011;57225;61.460;24.060;2023-08-06T12:22:14;4.50;;;2.17;;
61756;SDS011;57225;61.460;24.060;2023-08-06T12:24:59;4.18;;;1.77;;
61756;SDS011;57225;61.460;24.060;2023-08-06T12:27:44;6.97;;;2.10;;
61756;SDS011;57225;61.460;24.060;2023-08-06T12:30:30;7.75;;;2.40;;
61756;SDS011;57225;61.460;24.060;2023-08-06T12:33:14;8.18;;;2.38;;
61756;SDS011;57225;61.460;24.060;2023-08-06T12:35:59;5.43;;;2.35;;
61756;SDS011;57225;61.460;24.060;2023-08-06T12:38:44;5.25;;;1.95;;
61756;SDS011;57225;61.460;24.060;2023-08-06T12:41:28;6.75;;;2.10;;
61756;SDS011;57225;61.460;24.060;2023-08-06T12:44:31;6.53;;;2.00;;
61756;SDS011;57225;61.460;24.060;2023-08-06T12:47:17;6.10;;;2.00;;
61756;SDS011;57225;61.460;24.060;2023-08-06T12:50:01;5.63;;;2.22;;
61756;SDS011;57225;61.460;24.060;2023-08-06T12:52:46;8.35;;;2.45;;
61756;SDS011;57225;61.460;24.060;2023-08-06T12:55:30;4.30;;;1.98;;
61756;SDS011;57225;61.460;24.060;2023-08-06T12:58:15;8.48;;;1.90;;
61756;SDS011;57225;61.460;24.060;2023-08-06T13:00:59;4.30;;;1.90;;
61756;SDS011;57225;61.460;24.060;2023-08-06T13:03:44;5.57;;;1.90;;
61756;SDS011;57225;61.460;24.060;2023-08-06T13:06:28;5.82;;;2.00;;
61756;SDS011;57225;61.460;24.060;2023-08-06T13:09:13;4.32;;;1.83;;
61756;SDS011;57225;61.460;24.060;2023-08-06T13:11:58;5.43;;;2.10;;
61756;SDS011;57225;61.460;24.060;2023-08-06T13:14:43;3.22;;;1.92;;
61756;SDS011;57225;61.460;24.060;2023-08-06T13:17:28;6.35;;;1.80;;
61756;SDS011;57225;61.460;24.060;2023-08-06T13:20:12;4.15;;;1.90;;
61756;SDS011;57225;61.460;24.060;2023-08-06T13:22:58;4.20;;;1.90;;
61756;SDS011;57225;61.460;24.060;2023-08-06T13:25:44;6.38;;;2.10;;
61756;SDS011;57225;61.460;24.060;2023-08-06T13:28:29;6.57;;;2.28;;
61756;SDS011;57225;61.460;24.060;2023-08-06T13:31:13;6.03;;;2.05;;
61756;SDS011;57225;61.460;24.060;2023-08-06T13:33:58;6.53;;;2.15;;
61756;SDS011;57225;61.460;24.060;2023-08-06T13:36:42;6.90;;;1.90;;
61756;SDS011;57225;61.460;24.060;2023-08-06T13:39:27;5.93;;;2.20;;
61756;SDS011;57225;61.460;24.060;2023-08-06T13:42:12;5.35;;;2.08;;
61756;SDS011;57225;61.460;24.060;2023-08-06T13:44:56;4.00;;;2.10;;
61756;SDS011;57225;61.460;24.060;2023-08-06T13:47:46;6.97;;;2.25;;
61756;SDS011;57225;61.460;24.060;2023-08-06T13:50:31;14.02;;;2.10;;
61756;SDS011;57225;61.460;24.060;2023-08-06T13:53:15;4.43;;;2.17;;
61756;SDS011;57225;61.460;24.060;2023-08-06T13:56:00;6.43;;;2.10;;
61756;SDS011;57225;61.460;24.060;2023-08-06T13:58:44;6.15;;;1.90;;
61756;SDS011;57225;61.460;24.060;2023-08-06T14:01:29;5.25;;;2.17;;
61756;SDS011;57225;61.460;24.060;2023-08-06T14:04:13;6.70;;;2.25;;
61756;SDS011;57225;61.460;24.060;2023-08-06T14:06:58;9.32;;;2.10;;
61756;SDS011;57225;61.460;24.060;2023-08-06T14:09:42;7.70;;;2.35;;
61756;SDS011;57225;61.460;24.060;2023-08-06T14:12:27;7.15;;;2.45;;
61756;SDS011;57225;61.460;24.060;2023-08-06T14:15:12;5.78;;;2.67;;
61756;SDS011;57225;61.460;24.060;2023-08-06T14:17:56;6.88;;;2.10;;
61756;SDS011;57225;61.460;24.060;2023-08-06T14:20:41;6.97;;;2.25;;
61756;SDS011;57225;61.460;24.060;2023-08-06T14:23:27;5.75;;;2.25;;
61756;SDS011;57225;61.460;24.060;2023-08-06T14:26:11;5.07;;;2.42;;
61756;SDS011;57225;61.460;24.060;2023-08-06T14:28:58;6.13;;;2.17;;
61756;SDS011;57225;61.460;24.060;2023-08-06T14:31:43;6.47;;;2.45;;
61756;SDS011;57225;61.460;24.060;2023-08-06T14:34:27;9.18;;;2.70;;
61756;SDS011;57225;61.460;24.060;2023-08-06T14:37:12;5.53;;;2.30;;
61756;SDS011;57225;61.460;24.060;2023-08-06T14:39:56;8.45;;;2.33;;
61756;SDS011;57225;61.460;24.060;2023-08-06T14:42:41;7.63;;;2.30;;
61756;SDS011;57225;61.460;24.060;2023-08-06T14:45:26;4.90;;;2.05;;
61756;SDS011;57225;61.460;24.060;2023-08-06T14:48:10;8.45;;;2.50;;
61756;SDS011;57225;61.460;24.060;2023-08-06T14:50:54;6.53;;;2.63;;
61756;SDS011;57225;61.460;24.060;2023-08-06T14:53:39;9.23;;;2.30;;
61756;SDS011;57225;61.460;24.060;2023-08-06T14:56:23;4.93;;;2.13;;
61756;SDS011;57225;61.460;24.060;2023-08-06T14:59:08;5.38;;;1.90;;
61756;SDS011;57225;61.460;24.060;2023-08-06T15:01:52;7.80;;;1.98;;
61756;SDS011;57225;61.460;24.060;2023-08-06T15:04:37;8.70;;;2.00;;
61756;SDS011;57225;61.460;24.060;2023-08-06T15:07:21;5.85;;;2.28;;
61756;SDS011;57225;61.460;24.060;2023-08-06T15:10:06;5.18;;;2.25;;
61756;SDS011;57225;61.460;24.060;2023-08-06T15:12:51;9.85;;;2.38;;
61756;SDS011;57225;61.460;24.060;2023-08-06T15:15:35;4.80;;;2.05;;
61756;SDS011;57225;61.460;24.060;2023-08-06T15:18:20;8.23;;;1.90;;
61756;SDS011;57225;61.460;24.060;2023-08-06T15:21:04;5.68;;;2.30;;
61756;SDS011;57225;61.460;24.060;2023-08-06T15:23:49;4.80;;;2.03;;
61756;SDS011;57225;61.460;24.060;2023-08-06T15:26:33;10.70;;;2.22;;
61756;SDS011;57225;61.460;24.060;2023-08-06T15:29:21;7.03;;;2.20;;
61756;SDS011;57225;61.460;24.060;2023-08-06T15:32:06;8.27;;;2.25;;
61756;SDS011;57225;61.460;24.060;2023-08-06T15:34:51;4.47;;;2.20;;
61756;SDS011;57225;61.460;24.060;2023-08-06T15:37:35;6.60;;;2.53;;
61756;SDS011;57225;61.460;24.060;2023-08-06T15:40:20;5.65;;;2.25;;
61756;SDS011;57225;61.460;24.060;2023-08-06T15:43:04;4.28;;;2.03;;
61756;SDS011;57225;61.460;24.060;2023-08-06T15:45:49;5.32;;;2.20;;
61756;SDS011;57225;61.460;24.060;2023-08-06T15:48:34;5.20;;;2.42;;
61756;SDS011;57225;61.460;24.060;2023-08-06T15:51:18;5.05;;;2.30;;
61756;SDS011;57225;61.460;24.060;2023-08-06T15:54:03;13.75;;;2.38;;
61756;SDS011;57225;61.460;24.060;2023-08-06T15:56:48;7.00;;;2.63;;
61756;SDS011;57225;61.460;24.060;2023-08-06T15:59:32;4.80;;;2.45;;
61756;SDS011;57225;61.460;24.060;2023-08-06T16:02:17;8.05;;;2.38;;
61756;SDS011;57225;61.460;24.060;2023-08-06T16:05:01;4.18;;;2.13;;
61756;SDS011;57225;61.460;24.060;2023-08-06T16:07:45;6.43;;;2.17;;
61756;SDS011;57225;61.460;24.060;2023-08-06T16:10:30;4.50;;;2.10;;
61756;SDS011;57225;61.460;24.060;2023-08-06T16:13:15;7.30;;;2.22;;
61756;SDS011;57225;61.460;24.060;2023-08-06T16:16:00;9.73;;;2.63;;
61756;SDS011;57225;61.460;24.060;2023-08-06T16:18:45;6.55;;;2.35;;
61756;SDS011;57225;61.460;24.060;2023-08-06T16:21:30;6.18;;;2.47;;
61756;SDS011;57225;61.460;24.060;2023-08-06T16:24:15;3.42;;;2.30;;
61756;SDS011;57225;61.460;24.060;2023-08-06T16:26:59;5.47;;;2.40;;
61756;SDS011;57225;61.460;24.060;2023-08-06T16:29:44;5.90;;;2.72;;
61756;SDS011;57225;61.460;24.060;2023-08-06T16:32:29;4.90;;;2.40;;
61756;SDS011;57225;61.460;24.060;2023-08-06T16:35:14;8.02;;;2.55;;